createdAt,value
2017-12-25T00:00:46.534Z,90.40
2017-12-25T00:03:14.139Z,90.70
2017-12-25T00:05:41.715Z,90.30
2017-12-25T00:08:09.318Z,90.40
2017-12-25T00:10:36.952Z,90.20
2017-12-25T00:13:04.556Z,90.50
2017-12-25T00:15:32.141Z,90.70
2017-12-25T00:17:59.741Z,90.60
2017-12-25T00:20:27.320Z,90.10
2017-12-25T00:22:54.925Z,90.10
2017-12-25T00:25:23.276Z,90.30
2017-12-25T00:27:50.839Z,90.20
2017-12-25T00:30:18.431Z,90.40
2017-12-25T00:32:46.027Z,90.20
2017-12-25T00:35:13.649Z,90.30
2017-12-25T00:37:42.004Z,90.00
2017-12-25T00:40:09.595Z,90.00
2017-12-25T00:42:37.175Z,90.20
2017-12-25T00:45:04.760Z,90.40
2017-12-25T00:47:32.404Z,90.50
2017-12-25T00:50:00.010Z,90.30
2017-12-25T00:52:28.364Z,90.20
2017-12-25T00:54:55.939Z,90.10
2017-12-25T00:57:23.526Z,90.20
2017-12-25T00:59:51.908Z,90.50
2017-12-25T01:02:20.269Z,90.20
2017-12-25T01:04:47.910Z,90.20
2017-12-25T01:07:15.541Z,90.00
2017-12-25T01:09:43.121Z,90.00
2017-12-25T01:12:10.739Z,90.10
2017-12-25T01:14:39.076Z,90.20
2017-12-25T01:17:06.667Z,90.20
2017-12-25T01:19:35.036Z,90.30
2017-12-25T01:22:02.617Z,90.30
2017-12-25T01:24:30.984Z,90.20
2017-12-25T01:26:59.340Z,90.50
2017-12-25T01:29:26.922Z,90.40
2017-12-25T01:31:55.292Z,90.00
2017-12-25T01:34:22.884Z,90.00
2017-12-25T01:36:50.509Z,90.30
2017-12-25T01:39:18.104Z,90.30
2017-12-25T01:41:45.680Z,90.40
2017-12-25T01:44:13.256Z,90.50
2017-12-25T01:46:40.895Z,89.80
2017-12-25T01:49:08.496Z,90.30
2017-12-25T01:51:36.876Z,90.10
2017-12-25T01:54:04.489Z,90.10
2017-12-25T01:56:38.914Z,90.20
2017-12-25T01:59:08.971Z,90.40
2017-12-25T02:01:42.481Z,90.80
2017-12-25T02:04:16.032Z,90.20
2017-12-25T02:06:55.389Z,90.50
2017-12-25T02:09:23.018Z,90.10
2017-12-25T02:11:51.372Z,90.10
2017-12-25T02:14:18.966Z,90.10
2017-12-25T02:16:46.540Z,90.10
2017-12-25T02:19:14.134Z,90.10
2017-12-25T02:21:41.757Z,90.30
2017-12-25T02:24:09.359Z,90.40
2017-12-25T02:26:36.932Z,90.60
2017-12-25T02:29:04.505Z,90.50
2017-12-25T02:31:32.080Z,90.60
2017-12-25T02:34:00.452Z,90.70
2017-12-25T02:36:28.799Z,90.70
2017-12-25T02:38:56.375Z,90.70
2017-12-25T02:41:23.949Z,90.60
2017-12-25T02:43:52.296Z,90.90
2017-12-25T02:46:19.929Z,90.80
2017-12-25T02:48:47.519Z,91.00
2017-12-25T02:51:15.115Z,90.70
2017-12-25T02:53:42.730Z,90.60
2017-12-25T02:56:10.334Z,90.90
2017-12-25T02:58:38.721Z,90.70
2017-12-25T03:01:07.078Z,90.20
2017-12-25T03:03:34.674Z,90.20
2017-12-25T03:06:02.265Z,90.40
2017-12-25T03:08:29.836Z,90.40
2017-12-25T03:10:57.432Z,90.40
2017-12-25T03:13:25.018Z,90.50
2017-12-25T03:15:52.591Z,90.40
2017-12-25T03:18:20.169Z,90.50
2017-12-25T03:20:47.762Z,90.60
2017-12-25T03:23:15.359Z,90.30
2017-12-25T03:25:42.938Z,90.50
2017-12-25T03:28:10.520Z,90.70
2017-12-25T03:30:38.116Z,90.70
2017-12-25T03:33:05.710Z,90.70
2017-12-25T03:35:33.330Z,90.20
2017-12-25T03:38:00.904Z,90.60
2017-12-25T03:40:29.256Z,91.20
2017-12-25T03:42:56.850Z,91.10
2017-12-25T03:45:25.196Z,91.20
2017-12-25T03:47:52.837Z,91.10
2017-12-25T03:50:20.423Z,91.10
2017-12-25T03:52:48.018Z,91.20
2017-12-25T03:55:16.362Z,91.00
2017-12-25T03:57:43.953Z,91.00
2017-12-25T04:00:12.299Z,91.20
2017-12-25T04:02:39.905Z,91.20
2017-12-25T04:05:07.506Z,91.00
2017-12-25T04:07:35.083Z,91.20
2017-12-25T04:10:02.674Z,91.20
2017-12-25T04:12:31.025Z,91.10
2017-12-25T04:14:58.600Z,91.10
2017-12-25T04:17:26.201Z,91.40
2017-12-25T04:19:53.883Z,91.20
2017-12-25T04:22:21.491Z,91.30
2017-12-25T04:24:49.083Z,91.40
2017-12-25T04:27:16.661Z,91.00
2017-12-25T04:29:44.270Z,91.00
2017-12-25T04:32:11.845Z,91.20
2017-12-25T04:34:40.188Z,91.40
2017-12-25T04:37:07.764Z,91.40
2017-12-25T04:39:35.353Z,91.40
2017-12-25T04:42:03.710Z,91.70
2017-12-25T04:44:31.302Z,91.60
2017-12-25T04:46:58.890Z,91.50
2017-12-25T04:49:26.476Z,91.60
2017-12-25T04:51:54.075Z,91.80
2017-12-25T04:54:22.430Z,91.70
2017-12-25T04:56:50.055Z,91.70
2017-12-25T04:59:17.650Z,92.10
2017-12-25T05:01:45.234Z,91.60
2017-12-25T05:04:12.826Z,91.50
2017-12-25T05:06:40.408Z,91.60
2017-12-25T05:09:08.058Z,91.70
2017-12-25T05:11:35.636Z,92.00
2017-12-25T05:14:03.226Z,92.00
2017-12-25T05:16:31.637Z,92.30
2017-12-25T05:18:59.220Z,92.30
2017-12-25T05:21:26.815Z,91.80
2017-12-25T05:23:54.425Z,91.80
2017-12-25T05:26:22.019Z,92.00
2017-12-25T05:28:49.612Z,91.90
2017-12-25T05:31:17.989Z,92.00
2017-12-25T05:33:45.586Z,92.00
2017-12-25T05:36:13.189Z,92.00
2017-12-25T05:38:40.804Z,91.70
2017-12-25T05:41:08.395Z,91.60
2017-12-25T05:43:35.978Z,91.60
2017-12-25T05:46:03.592Z,91.80
2017-12-25T05:48:31.178Z,91.80
2017-12-25T05:50:58.747Z,91.60
2017-12-25T05:53:26.352Z,91.70
2017-12-25T05:55:54.715Z,91.80
2017-12-25T05:58:22.782Z,91.70
2017-12-25T06:00:53.732Z,91.60
2017-12-25T06:03:22.097Z,91.80
2017-12-25T06:05:49.696Z,91.80
2017-12-25T06:08:17.291Z,91.60
2017-12-25T06:10:44.879Z,91.70
2017-12-25T06:13:12.477Z,91.80
2017-12-25T06:15:42.011Z,91.80
2017-12-25T06:18:09.598Z,91.70
2017-12-25T06:20:37.171Z,91.80
2017-12-25T06:23:04.750Z,91.80
2017-12-25T06:25:33.095Z,92.20
2017-12-25T06:28:00.688Z,91.90
2017-12-25T06:30:29.036Z,91.60
2017-12-25T06:32:56.616Z,91.60
2017-12-25T06:35:24.197Z,91.90
2017-12-25T06:37:52.536Z,92.00
2017-12-25T06:40:20.104Z,92.00
2017-12-25T06:42:47.690Z,91.60
2017-12-25T06:45:16.048Z,91.50
2017-12-25T06:47:43.654Z,91.50
2017-12-25T06:50:11.236Z,91.60
2017-12-25T06:52:38.824Z,91.60
2017-12-25T06:55:06.408Z,91.80
2017-12-25T06:57:35.385Z,91.50
2017-12-25T07:00:02.992Z,91.50
2017-12-25T07:02:30.595Z,91.60
2017-12-25T07:04:58.188Z,91.60
2017-12-25T07:07:26.542Z,91.10
2017-12-25T07:09:54.133Z,91.00
2017-12-25T07:12:22.476Z,91.50
2017-12-25T07:14:50.095Z,91.50
2017-12-25T07:17:17.736Z,91.70
2017-12-25T07:19:52.176Z,92.10
2017-12-25T07:22:19.763Z,91.90
2017-12-25T07:24:57.477Z,92.00
2017-12-25T07:27:25.049Z,91.90
2017-12-25T07:29:52.632Z,91.60
2017-12-25T07:32:20.979Z,91.40
2017-12-25T07:34:48.547Z,91.40
2017-12-25T07:37:19.195Z,91.40
2017-12-25T07:39:46.822Z,91.50
2017-12-25T07:42:14.427Z,92.10
2017-12-25T07:44:42.769Z,91.80
2017-12-25T07:47:10.386Z,91.80
2017-12-25T07:49:37.996Z,91.40
2017-12-25T07:52:05.591Z,91.80
2017-12-25T07:54:33.965Z,91.80
2017-12-25T07:57:02.334Z,91.60
2017-12-25T07:59:29.916Z,91.60
2017-12-25T08:01:58.301Z,92.00
2017-12-25T08:04:25.899Z,92.00
2017-12-25T08:07:06.538Z,91.90
2017-12-25T08:09:34.113Z,92.00
2017-12-25T08:12:01.702Z,91.90
2017-12-25T08:14:29.306Z,91.80
2017-12-25T08:16:57.671Z,92.00
2017-12-25T08:19:26.060Z,91.80
2017-12-25T08:21:54.417Z,91.90
2017-12-25T08:24:22.009Z,91.90
2017-12-25T08:26:49.608Z,91.70
2017-12-25T08:29:17.200Z,91.70
2017-12-25T08:31:44.823Z,91.80
2017-12-25T08:34:12.426Z,91.40
2017-12-25T08:36:40.799Z,91.50
2017-12-25T08:39:08.388Z,91.50
2017-12-25T08:41:36.750Z,91.70
2017-12-25T08:44:05.130Z,91.50
2017-12-25T08:46:32.848Z,91.50
2017-12-25T08:49:00.441Z,91.60
2017-12-25T08:51:28.049Z,91.50
2017-12-25T08:53:55.669Z,91.50
2017-12-25T08:56:23.298Z,91.50
2017-12-25T08:58:50.899Z,91.80
2017-12-25T09:01:18.505Z,91.50
2017-12-25T09:03:46.130Z,91.40
2017-12-25T09:06:14.500Z,91.40
2017-12-25T09:08:42.116Z,91.40
2017-12-25T09:11:09.721Z,91.30
2017-12-25T09:13:37.318Z,91.00
2017-12-25T09:16:04.947Z,90.60
2017-12-25T09:18:33.293Z,91.20
2017-12-25T09:21:00.914Z,91.20
2017-12-25T09:23:28.501Z,91.30
2017-12-25T09:25:56.076Z,91.30
2017-12-25T09:28:23.675Z,91.30
2017-12-25T09:30:52.034Z,91.00
2017-12-25T09:33:19.670Z,91.00
2017-12-25T09:35:47.260Z,91.30
2017-12-25T09:38:14.850Z,91.00
2017-12-25T09:40:43.212Z,91.10
2017-12-25T09:43:11.774Z,91.10
2017-12-25T09:45:39.388Z,91.20
2017-12-25T09:48:06.969Z,90.90
2017-12-25T09:50:34.549Z,90.60
2017-12-25T09:53:02.149Z,90.30
2017-12-25T09:55:30.487Z,90.00
2017-12-25T09:57:58.122Z,90.00
2017-12-25T10:00:25.713Z,90.10
2017-12-25T10:02:53.321Z,89.10
2017-12-25T10:05:20.918Z,89.20
2017-12-25T10:07:48.488Z,90.60
2017-12-25T10:10:16.907Z,90.50
2017-12-25T10:12:45.262Z,90.20
2017-12-25T10:15:12.864Z,90.30
2017-12-25T10:17:41.255Z,90.00
2017-12-25T10:20:08.844Z,89.90
2017-12-25T10:22:36.462Z,88.40
2017-12-25T10:25:04.819Z,89.40
2017-12-25T10:27:32.396Z,89.40
2017-12-25T10:30:00.755Z,88.20
2017-12-25T10:32:28.328Z,88.20
2017-12-25T10:34:56.710Z,90.00
2017-12-25T10:37:25.056Z,87.50
2017-12-25T10:39:52.646Z,87.50
2017-12-25T10:42:21.001Z,88.90
2017-12-25T10:44:48.586Z,88.80
2017-12-25T10:47:16.950Z,89.60
2017-12-25T10:49:44.536Z,89.60
2017-12-25T10:52:12.898Z,88.60
2017-12-25T10:54:40.537Z,88.50
2017-12-25T10:57:08.128Z,88.70
2017-12-25T10:59:36.532Z,89.20
2017-12-25T11:02:04.130Z,89.10
2017-12-25T11:04:32.477Z,89.60
2017-12-25T11:07:19.585Z,89.70
2017-12-25T11:09:47.170Z,89.80
2017-12-25T11:12:14.810Z,89.60
2017-12-25T11:14:42.400Z,88.80
2017-12-25T11:17:09.993Z,89.50
2017-12-25T11:19:37.611Z,88.40
2017-12-25T11:22:05.201Z,88.80
2017-12-25T11:24:32.816Z,87.60
2017-12-25T11:27:00.411Z,87.80
2017-12-25T11:29:27.994Z,87.90
2017-12-25T11:31:55.560Z,88.60
2017-12-25T11:34:23.148Z,87.10
2017-12-25T11:36:51.535Z,87.30
2017-12-25T11:39:19.895Z,86.40
2017-12-25T11:41:48.269Z,86.60
2017-12-25T11:44:15.844Z,86.60
2017-12-25T11:46:44.206Z,84.50
2017-12-25T11:49:11.813Z,84.40
2017-12-25T11:51:39.409Z,84.60
2017-12-25T11:54:07.017Z,83.20
2017-12-25T11:56:34.617Z,83.00
2017-12-25T11:59:02.212Z,83.10
2017-12-25T12:01:29.837Z,85.10
2017-12-25T12:03:57.435Z,84.80
2017-12-25T12:06:25.023Z,84.80
2017-12-25T12:08:52.617Z,83.70
2017-12-25T12:11:20.188Z,82.70
2017-12-25T12:13:47.804Z,83.10
2017-12-25T12:16:16.155Z,82.00
2017-12-25T12:18:43.738Z,82.00
2017-12-25T12:21:12.113Z,81.10
2017-12-25T12:23:40.457Z,82.50
2017-12-25T12:26:08.047Z,82.40
2017-12-25T12:28:36.385Z,81.90
2017-12-25T12:31:03.991Z,81.80
2017-12-25T12:33:32.368Z,80.20
2017-12-25T12:36:00.726Z,82.00
2017-12-25T12:38:28.314Z,82.00
2017-12-25T12:40:56.663Z,82.10
2017-12-25T12:43:24.244Z,82.20
2017-12-25T12:45:52.638Z,81.40
2017-12-25T12:48:20.991Z,82.10
2017-12-25T12:50:48.580Z,82.10
2017-12-25T12:53:16.922Z,82.10
2017-12-25T12:55:44.497Z,82.00
2017-12-25T12:58:12.122Z,83.60
2017-12-25T13:00:39.746Z,82.20
2017-12-25T13:03:07.332Z,82.30
2017-12-25T13:05:34.943Z,81.90
2017-12-25T13:08:03.298Z,83.80
2017-12-25T13:10:30.900Z,83.70
2017-12-25T13:12:59.240Z,83.40
2017-12-25T13:15:26.837Z,83.40
2017-12-25T13:17:54.435Z,83.60
2017-12-25T13:20:22.016Z,83.10
2017-12-25T13:22:49.620Z,82.00
2017-12-25T13:25:17.960Z,83.10
2017-12-25T13:27:45.569Z,83.00
2017-12-25T13:30:13.156Z,83.10
2017-12-25T13:32:40.737Z,83.60
2017-12-25T13:35:08.369Z,83.30
2017-12-25T13:37:35.938Z,83.30
2017-12-25T13:40:03.532Z,82.90
2017-12-25T13:42:31.130Z,82.40
2017-12-25T13:44:58.719Z,82.70
2017-12-25T13:47:26.326Z,83.50
2017-12-25T13:49:53.920Z,83.90
2017-12-25T13:52:21.492Z,83.60
2017-12-25T13:54:49.094Z,84.30
2017-12-25T13:57:16.750Z,83.40
2017-12-25T13:59:48.032Z,83.30
2017-12-25T14:02:16.385Z,83.30
2017-12-25T14:04:43.978Z,83.30
2017-12-25T14:07:12.326Z,83.40
2017-12-25T14:09:39.912Z,83.40
2017-12-25T14:12:08.281Z,84.40
2017-12-25T14:14:35.863Z,84.40
2017-12-25T14:17:03.460Z,83.80
2017-12-25T14:19:31.065Z,84.20
2017-12-25T14:22:00.245Z,84.00
2017-12-25T14:24:27.857Z,84.00
2017-12-25T14:26:55.465Z,84.00
2017-12-25T14:29:23.063Z,84.30
2017-12-25T14:31:50.648Z,85.10
2017-12-25T14:34:18.220Z,85.30
2017-12-25T14:36:45.838Z,85.80
2017-12-25T14:39:14.179Z,86.20
2017-12-25T14:41:41.764Z,86.20
2017-12-25T14:44:10.128Z,86.70
2017-12-25T14:46:37.714Z,86.60
2017-12-25T14:49:06.095Z,87.40
2017-12-25T14:51:34.458Z,87.80
2017-12-25T14:54:02.042Z,87.80
2017-12-25T14:56:29.663Z,87.80
2017-12-25T14:58:57.251Z,87.90
2017-12-25T15:01:25.640Z,88.10
2017-12-25T15:03:53.999Z,88.40
2017-12-25T15:06:21.585Z,88.40
2017-12-25T15:08:49.950Z,88.80
2017-12-25T15:11:18.307Z,89.10
2017-12-25T15:13:45.915Z,89.10
2017-12-25T15:16:13.506Z,89.30
2017-12-25T15:18:41.104Z,89.00
2017-12-25T15:21:08.702Z,89.00
2017-12-25T15:23:36.284Z,89.30
2017-12-25T15:26:03.908Z,89.40
2017-12-25T15:28:32.264Z,89.90
2017-12-25T15:30:59.858Z,89.80
2017-12-25T15:33:27.458Z,90.10
2017-12-25T15:35:55.070Z,90.20
2017-12-25T15:38:23.470Z,90.60
2017-12-25T15:40:51.081Z,90.50
2017-12-25T15:43:18.684Z,90.70
2017-12-25T15:45:46.273Z,90.70
2017-12-25T15:48:13.857Z,90.80
2017-12-25T15:50:49.023Z,90.90
2017-12-25T15:53:17.421Z,91.30
2017-12-25T15:55:45.024Z,91.30
2017-12-25T15:58:12.623Z,91.50
2017-12-25T16:00:40.968Z,91.80
2017-12-25T16:03:08.584Z,91.80
2017-12-25T16:05:36.194Z,91.70
2017-12-25T16:08:03.791Z,91.80
2017-12-25T16:10:32.162Z,92.20
2017-12-25T16:13:00.513Z,92.50
2017-12-25T16:15:28.158Z,92.50
2017-12-25T16:17:55.759Z,92.60
2017-12-25T16:20:24.126Z,93.00
2017-12-25T16:22:51.714Z,92.90
2017-12-25T16:25:20.062Z,93.00
2017-12-25T16:27:47.677Z,93.00
2017-12-25T16:30:15.279Z,93.30
2017-12-25T16:32:42.901Z,93.40
2017-12-25T16:35:10.524Z,93.50
2017-12-25T16:37:42.634Z,93.80
2017-12-25T16:40:10.286Z,93.70
2017-12-25T16:42:37.884Z,93.70
2017-12-25T16:45:05.485Z,94.10
2017-12-25T16:47:33.855Z,94.30
2017-12-25T16:50:02.209Z,94.70
2017-12-25T16:52:29.845Z,94.30
2017-12-25T16:54:57.459Z,94.20
2017-12-25T16:57:25.816Z,94.20
2017-12-25T16:59:53.409Z,94.10
2017-12-25T17:02:21.774Z,94.40
2017-12-25T17:04:50.174Z,94.70
2017-12-25T17:07:18.512Z,94.80
2017-12-25T17:09:46.109Z,94.70
2017-12-25T17:12:14.489Z,94.70
2017-12-25T17:14:42.857Z,94.60
2017-12-25T17:17:11.251Z,94.70
2017-12-25T17:19:39.599Z,94.70
2017-12-25T17:22:07.193Z,94.70
2017-12-25T17:24:34.857Z,94.60
2017-12-25T17:27:02.459Z,94.60
2017-12-25T17:29:30.077Z,94.70
2017-12-25T17:31:58.444Z,94.80
2017-12-25T17:34:26.814Z,94.90
2017-12-25T17:36:54.437Z,94.90
2017-12-25T17:39:22.032Z,94.80
2017-12-25T17:41:49.657Z,94.90
2017-12-25T17:44:17.271Z,94.90
2017-12-25T17:46:45.637Z,95.10
2017-12-25T17:49:13.239Z,95.10
2017-12-25T17:51:40.881Z,95.00
2017-12-25T17:54:09.274Z,95.30
2017-12-25T17:56:36.903Z,95.30
2017-12-25T17:59:05.272Z,95.40
2017-12-25T18:01:32.864Z,95.40
2017-12-25T18:04:00.460Z,95.20
2017-12-25T18:06:28.112Z,95.30
2017-12-25T18:08:55.723Z,95.10
2017-12-25T18:11:23.343Z,95.20
2017-12-25T18:13:50.947Z,95.30
2017-12-25T18:16:19.323Z,95.50
2017-12-25T18:18:46.958Z,95.50
2017-12-25T18:21:14.589Z,95.70
2017-12-25T18:23:42.191Z,95.50
2017-12-25T18:26:09.796Z,95.40
2017-12-25T18:28:37.380Z,95.30
2017-12-25T18:31:04.997Z,95.30
2017-12-25T18:33:32.601Z,95.30
2017-12-25T18:36:00.181Z,95.30
2017-12-25T18:38:27.779Z,95.30
2017-12-25T18:40:55.372Z,95.50
2017-12-25T18:43:22.989Z,95.50
2017-12-25T18:45:50.675Z,95.40
2017-12-25T18:48:19.042Z,95.50
2017-12-25T18:50:46.628Z,95.50
2017-12-25T18:53:15.009Z,95.60
2017-12-25T18:55:42.662Z,95.70
2017-12-25T18:58:11.039Z,95.90
2017-12-25T19:00:39.451Z,95.90
2017-12-25T19:03:07.058Z,95.90
2017-12-25T19:05:34.695Z,96.00
2017-12-25T19:08:02.329Z,96.00
2017-12-25T19:10:29.936Z,96.00
2017-12-25T19:12:57.526Z,96.00
2017-12-25T19:15:25.882Z,96.40
2017-12-25T19:17:53.505Z,96.40
2017-12-25T19:20:21.133Z,96.50
2017-12-25T19:23:09.881Z,96.30
2017-12-25T19:25:38.264Z,96.30
2017-12-25T19:28:06.626Z,96.40
2017-12-25T19:30:34.212Z,96.40
2017-12-25T19:33:01.852Z,96.60
2017-12-25T19:35:29.436Z,96.60
2017-12-25T19:37:57.053Z,96.70
2017-12-25T19:40:24.662Z,97.00
2017-12-25T19:42:52.262Z,97.00
2017-12-25T19:45:20.616Z,97.20
2017-12-25T19:47:48.218Z,97.20
2017-12-25T19:50:15.828Z,97.00
2017-12-25T19:52:43.427Z,96.90
2017-12-25T19:55:11.036Z,97.00
2017-12-25T19:57:39.407Z,97.00
2017-12-25T20:00:07.789Z,97.10
2017-12-25T20:02:36.161Z,97.20
2017-12-25T20:05:04.527Z,97.30
2017-12-25T20:07:32.121Z,97.30
2017-12-25T20:09:59.718Z,97.30
2017-12-25T20:12:27.296Z,97.10
2017-12-25T20:14:54.923Z,97.10
2017-12-25T20:17:22.520Z,96.90
2017-12-25T20:19:50.123Z,97.00
2017-12-25T20:22:17.770Z,97.00
2017-12-25T20:24:46.120Z,97.00
2017-12-25T20:27:13.758Z,97.00
2017-12-25T20:29:41.366Z,96.90
2017-12-25T20:32:08.944Z,96.90
2017-12-25T20:34:37.305Z,97.00
2017-12-25T20:37:04.886Z,97.00
2017-12-25T20:39:33.271Z,96.90
2017-12-25T20:42:00.867Z,96.90
2017-12-25T20:44:28.476Z,97.00
2017-12-25T20:46:56.846Z,96.80
2017-12-25T20:49:24.466Z,96.80
2017-12-25T20:51:52.853Z,96.90
2017-12-25T20:54:20.472Z,96.90
2017-12-25T20:56:48.843Z,96.80
2017-12-25T20:59:17.210Z,96.80
2017-12-25T21:01:45.573Z,96.90
2017-12-25T21:04:13.245Z,96.90
2017-12-25T21:06:40.861Z,97.00
2017-12-25T21:09:08.449Z,97.10
2017-12-25T21:11:36.053Z,97.10
2017-12-25T21:14:04.425Z,97.10
2017-12-25T21:16:32.820Z,96.90
2017-12-25T21:19:00.442Z,96.90
2017-12-25T21:21:28.042Z,97.10
2017-12-25T21:23:55.669Z,97.10
2017-12-25T21:26:23.295Z,97.10
2017-12-25T21:28:50.930Z,97.20
2017-12-25T21:31:18.578Z,97.20
2017-12-25T21:33:46.202Z,97.10
2017-12-25T21:36:13.829Z,97.10
2017-12-25T21:38:41.421Z,97.00
2017-12-25T21:41:09.069Z,97.00
2017-12-25T21:43:36.687Z,96.90
2017-12-25T21:46:05.088Z,97.00
2017-12-25T21:48:32.707Z,97.00
2017-12-25T21:51:00.310Z,96.90
2017-12-25T21:53:27.932Z,96.90
2017-12-25T21:55:56.330Z,97.00
2017-12-25T21:58:23.930Z,97.00
2017-12-25T22:00:51.534Z,96.90
2017-12-25T22:03:19.128Z,96.90
2017-12-25T22:05:46.782Z,96.80
2017-12-25T22:08:14.385Z,96.70
2017-12-25T22:10:42.031Z,96.80
2017-12-25T22:13:09.653Z,96.80
2017-12-25T22:15:38.031Z,96.80
2017-12-25T22:18:28.332Z,96.80
2017-12-25T22:20:56.699Z,97.00
2017-12-25T22:23:25.068Z,97.00
2017-12-25T22:25:52.688Z,97.00
2017-12-25T22:28:20.299Z,97.30
2017-12-25T22:30:48.692Z,97.00
2017-12-25T22:33:17.033Z,96.80
2017-12-25T22:35:44.633Z,96.80
2017-12-25T22:38:12.980Z,96.70
2017-12-25T22:40:40.573Z,96.80
2017-12-25T22:43:08.941Z,96.60
2017-12-25T22:45:37.309Z,96.40
2017-12-25T22:48:05.680Z,96.70
2017-12-25T22:50:33.260Z,96.40
2017-12-25T22:53:01.620Z,96.20
2017-12-25T22:55:29.233Z,96.20
2017-12-25T22:57:56.828Z,96.20
2017-12-25T23:00:24.424Z,96.30
2017-12-25T23:02:52.774Z,96.50
2017-12-25T23:05:20.374Z,96.50
2017-12-25T23:07:48.781Z,96.20
2017-12-25T23:10:16.378Z,96.20
2017-12-25T23:12:43.990Z,96.00
2017-12-25T23:15:11.587Z,96.10
2017-12-25T23:17:39.169Z,96.00
2017-12-25T23:20:06.784Z,95.60
2017-12-25T23:22:34.433Z,95.50
2017-12-25T23:25:02.023Z,95.60
2017-12-25T23:27:30.423Z,95.50
2017-12-25T23:29:58.018Z,95.40
2017-12-25T23:32:26.406Z,95.60
2017-12-25T23:34:53.992Z,95.60
2017-12-25T23:37:21.588Z,95.50
2017-12-25T23:39:49.182Z,95.60
2017-12-25T23:42:17.569Z,95.80
2017-12-25T23:44:45.216Z,95.90
2017-12-25T23:47:13.596Z,96.10
2017-12-25T23:49:41.216Z,96.10
2017-12-25T23:52:08.814Z,96.20
2017-12-25T23:54:37.175Z,96.40
2017-12-25T23:57:04.816Z,96.40
2017-12-25T23:59:32.439Z,96.30
